createdAt,value
2024-04-22T00:00:11.328Z,1002.88
2024-04-22T00:01:11.324Z,1002.87
2024-04-22T00:02:11.279Z,1002.87
2024-04-22T00:03:11.235Z,1002.87
2024-04-22T00:04:11.272Z,1002.86
2024-04-22T00:05:11.213Z,1002.85
2024-04-22T00:06:11.227Z,1002.84
2024-04-22T00:07:11.218Z,1002.81
2024-04-22T00:08:11.186Z,1002.79
2024-04-22T00:09:11.172Z,1002.77
2024-04-22T00:10:11.194Z,1002.76
2024-04-22T00:11:11.871Z,1002.75
2024-04-22T00:12:11.138Z,1002.75
2024-04-22T00:13:11.174Z,1002.74
2024-04-22T00:14:11.122Z,1002.72
2024-04-22T00:15:11.119Z,1002.72
2024-04-22T00:16:11.114Z,1002.71
2024-04-22T00:17:11.110Z,1002.67
2024-04-22T00:18:11.114Z,1002.65
2024-04-22T00:19:11.130Z,1002.67
2024-04-22T00:20:11.052Z,1002.67
2024-04-22T00:21:11.080Z,1002.66
2024-04-22T00:22:11.071Z,1002.67
2024-04-22T00:23:11.035Z,1002.68
2024-04-22T00:24:11.023Z,1002.69
2024-04-22T00:25:11.066Z,1002.68
2024-04-22T00:26:11.031Z,1002.69
2024-04-22T00:27:10.998Z,1002.68
2024-04-22T00:28:10.993Z,1002.67
2024-04-22T00:29:10.968Z,1002.67
2024-04-22T00:30:10.978Z,1002.65
2024-04-22T00:31:10.986Z,1002.65
2024-04-22T00:32:10.944Z,1002.66
2024-04-22T00:33:11.135Z,1002.66
2024-04-22T00:34:10.940Z,1002.66
2024-04-22T00:35:10.936Z,1002.65
2024-04-22T00:36:10.892Z,1002.64
2024-04-22T00:37:10.916Z,1002.64
2024-04-22T00:38:10.880Z,1002.65
2024-04-22T00:39:10.887Z,1002.66
2024-04-22T00:40:10.891Z,1002.68
2024-04-22T00:41:10.850Z,1002.69
2024-04-22T00:42:10.840Z,1002.71
2024-04-22T00:43:10.881Z,1002.72
2024-04-22T00:44:10.841Z,1002.72
2024-04-22T00:45:10.806Z,1002.72
2024-04-22T00:46:10.832Z,1002.70
2024-04-22T00:47:10.816Z,1002.69
2024-04-22T00:48:10.804Z,1002.69
2024-04-22T00:49:10.804Z,1002.70
2024-04-22T00:50:10.778Z,1002.71
2024-04-22T00:51:10.754Z,1002.71
2024-04-22T00:52:10.752Z,1002.70
2024-04-22T00:53:10.764Z,1002.71
2024-04-22T00:54:10.764Z,1002.71
2024-04-22T00:55:10.743Z,1002.72
2024-04-22T00:56:10.701Z,1002.71
2024-04-22T00:57:10.694Z,1002.70
2024-04-22T00:58:10.732Z,1002.69
2024-04-22T00:59:10.696Z,1002.68
2024-04-22T01:00:10.673Z,1002.68
2024-04-22T01:01:10.718Z,1002.67
2024-04-22T01:02:10.656Z,1002.67
2024-04-22T01:03:10.657Z,1002.66
2024-04-22T01:04:10.690Z,1002.66
2024-04-22T01:05:10.684Z,1002.67
2024-04-22T01:06:10.619Z,1002.68
2024-04-22T01:07:10.624Z,1002.70
2024-04-22T01:08:10.606Z,1002.72
2024-04-22T01:09:10.571Z,1002.75
2024-04-22T01:10:10.639Z,1002.78
2024-04-22T01:11:10.590Z,1002.80
2024-04-22T01:12:10.603Z,1002.84
2024-04-22T01:13:10.568Z,1002.86
2024-04-22T01:14:10.526Z,1002.88
2024-04-22T01:15:10.516Z,1002.88
2024-04-22T01:16:10.565Z,1002.88
2024-04-22T01:17:10.574Z,1002.87
2024-04-22T01:18:10.519Z,1002.86
2024-04-22T01:19:10.500Z,1002.84
2024-04-22T01:20:10.463Z,1002.84
2024-04-22T01:21:10.466Z,1002.84
2024-04-22T01:22:10.484Z,1002.83
2024-04-22T01:23:10.433Z,1002.81
2024-04-22T01:24:10.424Z,1002.80
2024-04-22T01:25:10.436Z,1002.79
2024-04-22T01:26:10.406Z,1002.78
2024-04-22T01:27:10.402Z,1002.77
2024-04-22T01:28:10.442Z,1002.74
2024-04-22T01:29:10.366Z,1002.73
2024-04-22T01:30:10.389Z,1002.71
2024-04-22T01:31:10.385Z,1002.69
2024-04-22T01:32:10.387Z,1002.66
2024-04-22T01:33:10.370Z,1002.65
2024-04-22T01:34:10.330Z,1002.63
2024-04-22T01:35:10.298Z,1002.63
2024-04-22T01:36:10.374Z,1002.63
2024-04-22T01:37:10.326Z,1002.63
2024-04-22T01:38:10.282Z,1002.63
2024-04-22T01:39:10.291Z,1002.63
2024-04-22T01:40:10.385Z,1002.62
2024-04-22T01:41:10.263Z,1002.62
2024-04-22T01:42:10.244Z,1002.62
2024-04-22T01:43:10.285Z,1002.62
2024-04-22T01:44:10.238Z,1002.63
2024-04-22T01:45:10.246Z,1002.64
2024-04-22T01:46:10.235Z,1002.65
2024-04-22T01:47:10.234Z,1002.65
2024-04-22T01:48:10.185Z,1002.66
2024-04-22T01:49:10.255Z,1002.66
2024-04-22T01:50:10.212Z,1002.66
2024-04-22T01:51:10.144Z,1002.67
2024-04-22T01:52:10.151Z,1002.67
2024-04-22T01:53:10.141Z,1002.68
2024-04-22T01:54:10.146Z,1002.68
2024-04-22T01:55:11.555Z,1002.69
2024-04-22T01:56:10.131Z,1002.68
2024-04-22T01:57:10.089Z,1002.68
2024-04-22T01:58:10.117Z,1002.68
2024-04-22T01:59:10.086Z,1002.69
2024-04-22T02:00:10.108Z,1002.68
2024-04-22T02:01:10.151Z,1002.68
2024-04-22T02:02:10.048Z,1002.68
2024-04-22T02:03:10.042Z,1002.68
2024-04-22T02:04:10.136Z,1002.67
2024-04-22T02:05:10.012Z,1002.67
2024-04-22T02:06:09.999Z,1002.66
2024-04-22T02:07:10.044Z,1002.65
2024-04-22T02:08:09.996Z,1002.64
2024-04-22T02:09:09.988Z,1002.64
2024-04-22T02:10:17.635Z,1002.63
2024-04-22T02:11:10.030Z,1002.62
2024-04-22T02:12:09.949Z,1002.62
2024-04-22T02:13:10.007Z,1002.63
2024-04-22T02:14:09.926Z,1002.63
2024-04-22T02:15:09.907Z,1002.63
2024-04-22T02:16:09.927Z,1002.63
2024-04-22T02:17:09.925Z,1002.63
2024-04-22T02:18:09.979Z,1002.63
2024-04-22T02:19:09.900Z,1002.63
2024-04-22T02:20:09.866Z,1002.63
2024-04-22T02:21:09.846Z,1002.62
2024-04-22T02:22:09.918Z,1002.60
2024-04-22T02:23:09.853Z,1002.58
2024-04-22T02:24:09.839Z,1002.57
2024-04-22T02:25:09.851Z,1002.56
2024-04-22T02:26:09.806Z,1002.54
2024-04-22T02:27:09.816Z,1002.53
2024-04-22T02:28:09.821Z,1002.51
2024-04-22T02:29:09.772Z,1002.52
2024-04-22T02:30:09.768Z,1002.53
2024-04-22T02:31:09.766Z,1002.54
2024-04-22T02:32:09.764Z,1002.55
2024-04-22T02:33:10.080Z,1002.55
2024-04-22T02:34:09.759Z,1002.55
2024-04-22T02:35:09.713Z,1002.53
2024-04-22T02:36:09.718Z,1002.52
2024-04-22T02:37:09.721Z,1002.51
2024-04-22T02:38:09.693Z,1002.51
2024-04-22T02:39:09.689Z,1002.51
2024-04-22T02:40:09.737Z,1002.51
2024-04-22T02:41:09.679Z,1002.50
2024-04-22T02:42:09.671Z,1002.50
2024-04-22T02:43:09.654Z,1002.50
2024-04-22T02:44:09.651Z,1002.49
2024-04-22T02:45:09.615Z,1002.49
2024-04-22T02:46:09.789Z,1002.49
2024-04-22T02:47:09.598Z,1002.49
2024-04-22T02:48:09.598Z,1002.49
2024-04-22T02:49:09.590Z,1002.48
2024-04-22T02:50:09.781Z,1002.46
2024-04-22T02:51:09.877Z,1002.44
2024-04-22T02:52:09.581Z,1002.42
2024-04-22T02:53:09.532Z,1002.42
2024-04-22T02:54:09.532Z,1002.42
2024-04-22T02:55:09.541Z,1002.42
2024-04-22T02:56:09.514Z,1002.41
2024-04-22T02:57:09.487Z,1002.41
2024-04-22T02:58:09.505Z,1002.41
2024-04-22T02:59:09.476Z,1002.42
2024-04-22T03:00:09.496Z,1002.42
2024-04-22T03:01:09.559Z,1002.42
2024-04-22T03:02:09.455Z,1002.41
2024-04-22T03:03:09.434Z,1002.40
2024-04-22T03:04:09.548Z,1002.39
2024-04-22T03:05:09.419Z,1002.38
2024-04-22T03:06:09.406Z,1002.37
2024-04-22T03:07:09.490Z,1002.37
2024-04-22T03:08:09.391Z,1002.37
2024-04-22T03:09:09.400Z,1002.37
2024-04-22T03:10:09.419Z,1002.37
2024-04-22T03:11:09.370Z,1002.38
2024-04-22T03:12:09.362Z,1002.38
2024-04-22T03:13:09.346Z,1002.39
2024-04-22T03:14:09.347Z,1002.39
2024-04-22T03:15:09.307Z,1002.39
2024-04-22T03:16:09.321Z,1002.39
2024-04-22T03:17:09.528Z,1002.39
2024-04-22T03:18:09.384Z,1002.41
2024-04-22T03:19:09.365Z,1002.42
2024-04-22T03:20:09.269Z,1002.44
2024-04-22T03:21:09.272Z,1002.46
2024-04-22T03:22:09.275Z,1002.46
2024-04-22T03:23:09.251Z,1002.47
2024-04-22T03:24:09.243Z,1002.47
2024-04-22T03:25:09.252Z,1002.46
2024-04-22T03:26:09.223Z,1002.46
2024-04-22T03:27:09.190Z,1002.45
2024-04-22T03:28:09.209Z,1002.44
2024-04-22T03:29:09.167Z,1002.43
2024-04-22T03:30:09.168Z,1002.41
2024-04-22T03:31:09.177Z,1002.40
2024-04-22T03:32:09.294Z,1002.39
2024-04-22T03:33:09.250Z,1002.38
2024-04-22T03:34:09.153Z,1002.38
2024-04-22T03:35:09.110Z,1002.39
2024-04-22T03:36:09.133Z,1002.39
2024-04-22T03:37:09.146Z,1002.38
2024-04-22T03:38:09.061Z,1002.38
2024-04-22T03:39:09.073Z,1002.36
2024-04-22T03:40:09.105Z,1002.35
2024-04-22T03:41:09.057Z,1002.34
2024-04-22T03:42:09.032Z,1002.34
2024-04-22T03:43:08.994Z,1002.34
2024-04-22T03:44:09.036Z,1002.35
2024-04-22T03:45:09.042Z,1002.35
2024-04-22T03:46:09.032Z,1002.35
2024-04-22T03:47:09.047Z,1002.36
2024-04-22T03:48:09.032Z,1002.37
2024-04-22T03:49:08.966Z,1002.36
2024-04-22T03:50:08.980Z,1002.35
2024-04-22T03:51:08.984Z,1002.35
2024-04-22T03:52:08.993Z,1002.36
2024-04-22T03:53:08.940Z,1002.36
2024-04-22T03:54:08.909Z,1002.35
2024-04-22T03:55:08.880Z,1002.33
2024-04-22T03:56:08.901Z,1002.33
2024-04-22T03:57:08.850Z,1002.32
2024-04-22T03:58:08.879Z,1002.32
2024-04-22T03:59:08.811Z,1002.32
2024-04-22T04:00:08.819Z,1002.33
2024-04-22T04:01:08.957Z,1002.34
2024-04-22T04:02:08.894Z,1002.35
2024-04-22T04:03:08.855Z,1002.35
2024-04-22T04:04:08.898Z,1002.35
2024-04-22T04:05:08.965Z,1002.34
2024-04-22T04:06:08.763Z,1002.34
2024-04-22T04:07:08.742Z,1002.35
2024-04-22T04:08:08.737Z,1002.35
2024-04-22T04:09:08.726Z,1002.35
2024-04-22T04:10:08.771Z,1002.35
2024-04-22T04:11:08.731Z,1002.36
2024-04-22T04:12:08.710Z,1002.36
2024-04-22T04:13:08.716Z,1002.37
2024-04-22T04:14:08.761Z,1002.37
2024-04-22T04:15:08.677Z,1002.37
2024-04-22T04:16:08.732Z,1002.37
2024-04-22T04:17:08.719Z,1002.37
2024-04-22T04:18:08.657Z,1002.37
2024-04-22T04:19:08.712Z,1002.38
2024-04-22T04:20:08.631Z,1002.38
2024-04-22T04:21:08.616Z,1002.39
2024-04-22T04:22:08.636Z,1002.41
2024-04-22T04:23:08.602Z,1002.42
2024-04-22T04:24:08.786Z,1002.42
2024-04-22T04:25:08.619Z,1002.43
2024-04-22T04:26:08.544Z,1002.42
2024-04-22T04:27:08.529Z,1002.41
2024-04-22T04:28:08.590Z,1002.39
2024-04-22T04:29:08.549Z,1002.38
2024-04-22T04:30:08.507Z,1002.37
2024-04-22T04:31:08.513Z,1002.35
2024-04-22T04:32:08.576Z,1002.34
2024-04-22T04:33:08.563Z,1002.33
2024-04-22T04:34:08.487Z,1002.32
2024-04-22T04:35:08.995Z,1002.31
2024-04-22T04:36:08.444Z,1002.31
2024-04-22T04:37:08.520Z,1002.30
2024-04-22T04:38:08.448Z,1002.30
2024-04-22T04:39:08.506Z,1002.31
2024-04-22T04:40:08.460Z,1002.30
2024-04-22T04:41:08.388Z,1002.30
2024-04-22T04:42:08.385Z,1002.30
2024-04-22T04:43:08.387Z,1002.30
2024-04-22T04:44:08.364Z,1002.31
2024-04-22T04:45:08.355Z,1002.32
2024-04-22T04:46:08.414Z,1002.34
2024-04-22T04:47:08.388Z,1002.35
2024-04-22T04:48:08.389Z,1002.36
2024-04-22T04:49:08.358Z,1002.37
2024-04-22T04:50:08.318Z,1002.37
2024-04-22T04:51:08.301Z,1002.39
2024-04-22T04:52:08.341Z,1002.40
2024-04-22T04:53:08.302Z,1002.42
2024-04-22T04:54:08.271Z,1002.42
2024-04-22T04:55:08.270Z,1002.42
2024-04-22T04:56:08.244Z,1002.42
2024-04-22T04:57:08.255Z,1002.42
2024-04-22T04:58:08.283Z,1002.43
2024-04-22T04:59:08.204Z,1002.43
2024-04-22T05:00:08.218Z,1002.43
2024-04-22T05:01:08.337Z,1002.43
2024-04-22T05:02:08.433Z,1002.42
2024-04-22T05:03:08.198Z,1002.43
2024-04-22T05:04:08.219Z,1002.43
2024-04-22T05:05:08.152Z,1002.43
2024-04-22T05:06:08.271Z,1002.43
2024-04-22T05:07:08.378Z,1002.43
2024-04-22T05:08:08.139Z,1002.42
2024-04-22T05:09:08.122Z,1002.43
2024-04-22T05:10:08.138Z,1002.44
2024-04-22T05:11:08.131Z,1002.45
2024-04-22T05:12:08.095Z,1002.45
2024-04-22T05:13:08.113Z,1002.46
2024-04-22T05:14:08.072Z,1002.45
2024-04-22T05:15:08.051Z,1002.44
2024-04-22T05:16:08.123Z,1002.45
2024-04-22T05:17:08.044Z,1002.46
2024-04-22T05:18:08.081Z,1002.45
2024-04-22T05:19:08.110Z,1002.44
2024-04-22T05:20:08.025Z,1002.45
2024-04-22T05:21:08.022Z,1002.44
2024-04-22T05:22:08.196Z,1002.45
2024-04-22T05:23:07.974Z,1002.45
2024-04-22T05:24:08.079Z,1002.45
2024-04-22T05:25:08.108Z,1002.45
2024-04-22T05:26:07.953Z,1002.45
2024-04-22T05:27:08.088Z,1002.45
2024-04-22T05:28:07.965Z,1002.45
2024-04-22T05:29:07.916Z,1002.45
2024-04-22T05:30:07.990Z,1002.45
2024-04-22T05:31:07.917Z,1002.43
2024-04-22T05:32:07.978Z,1002.43
2024-04-22T05:33:07.966Z,1002.42
2024-04-22T05:34:07.922Z,1002.41
2024-04-22T05:35:07.885Z,1002.40
2024-04-22T05:36:07.874Z,1002.38
2024-04-22T05:37:07.869Z,1002.37
2024-04-22T05:38:07.857Z,1002.38
2024-04-22T05:39:07.860Z,1002.37
2024-04-22T05:40:07.818Z,1002.37
2024-04-22T05:41:07.814Z,1002.36
2024-04-22T05:42:07.795Z,1002.35
2024-04-22T05:43:07.783Z,1002.34
2024-04-22T05:44:07.808Z,1002.34
2024-04-22T05:45:07.786Z,1002.33
2024-04-22T05:46:07.984Z,1002.33
2024-04-22T05:47:07.746Z,1002.32
2024-04-22T05:48:07.824Z,1002.32
2024-04-22T05:49:07.766Z,1002.32
2024-04-22T05:50:07.779Z,1002.32
2024-04-22T05:51:07.712Z,1002.33
2024-04-22T05:52:07.691Z,1002.32
2024-04-22T05:53:07.729Z,1002.33
2024-04-22T05:54:07.801Z,1002.32
2024-04-22T05:55:07.658Z,1002.31
2024-04-22T05:56:07.664Z,1002.31
2024-04-22T05:57:07.640Z,1002.32
2024-04-22T05:58:07.664Z,1002.32
2024-04-22T05:59:07.653Z,1002.33
2024-04-22T06:00:07.607Z,1002.33
2024-04-22T06:01:07.632Z,1002.34
2024-04-22T06:02:07.667Z,1002.34
2024-04-22T06:03:07.595Z,1002.35
2024-04-22T06:04:07.633Z,1002.36
2024-04-22T06:05:07.585Z,1002.37
2024-04-22T06:06:07.543Z,1002.38
2024-04-22T06:07:07.571Z,1002.38
2024-04-22T06:08:07.556Z,1002.39
2024-04-22T06:09:07.602Z,1002.40
2024-04-22T06:10:07.514Z,1002.39
2024-04-22T06:11:07.544Z,1002.39
2024-04-22T06:12:15.404Z,1002.38
2024-04-22T06:13:07.492Z,1002.38
2024-04-22T06:14:07.478Z,1002.38
2024-04-22T06:15:07.499Z,1002.38
2024-04-22T06:16:07.498Z,1002.37
2024-04-22T06:17:07.498Z,1002.36
2024-04-22T06:18:07.455Z,1002.36
2024-04-22T06:19:07.419Z,1002.35
2024-04-22T06:20:07.473Z,1002.35
2024-04-22T06:21:07.454Z,1002.36
2024-04-22T06:22:07.422Z,1002.38
2024-04-22T06:23:07.377Z,1002.38
2024-04-22T06:24:07.351Z,1002.39
2024-04-22T06:25:07.353Z,1002.39
2024-04-22T06:26:07.359Z,1002.40
2024-04-22T06:27:07.349Z,1002.41
2024-04-22T06:28:07.338Z,1002.41
2024-04-22T06:29:07.343Z,1002.42
2024-04-22T06:30:07.333Z,1002.42
2024-04-22T06:31:09.756Z,1002.41
2024-04-22T06:32:07.330Z,1002.41
2024-04-22T06:33:07.365Z,1002.41
2024-04-22T06:34:07.277Z,1002.40
2024-04-22T06:35:07.271Z,1002.40
2024-04-22T06:36:07.228Z,1002.41
2024-04-22T06:37:07.241Z,1002.40
2024-04-22T06:38:09.100Z,1002.39
2024-04-22T06:39:07.218Z,1002.39
2024-04-22T06:40:07.216Z,1002.39
2024-04-22T06:41:07.176Z,1002.39
2024-04-22T06:42:07.187Z,1002.38
2024-04-22T06:43:07.199Z,1002.37
2024-04-22T06:44:07.197Z,1002.36
2024-04-22T06:45:07.170Z,1002.35
2024-04-22T06:46:07.164Z,1002.35
2024-04-22T06:47:07.252Z,1002.33
2024-04-22T06:48:07.136Z,1002.32
2024-04-22T06:49:07.197Z,1002.32
2024-04-22T06:50:07.111Z,1002.30
2024-04-22T06:51:07.088Z,1002.28
2024-04-22T06:52:07.103Z,1002.28
2024-04-22T06:53:07.071Z,1002.26
2024-04-22T06:54:07.071Z,1002.25
2024-04-22T06:55:07.048Z,1002.25
2024-04-22T06:56:07.052Z,1002.23
2024-04-22T06:57:07.023Z,1002.24
2024-04-22T06:58:07.068Z,1002.23
2024-04-22T06:59:07.042Z,1002.24
2024-04-22T07:00:07.023Z,1002.23
2024-04-22T07:01:07.100Z,1002.22
2024-04-22T07:02:10.452Z,1002.22
2024-04-22T07:03:07.135Z,1002.20
2024-04-22T07:04:07.172Z,1002.20
2024-04-22T07:05:07.111Z,1002.19
2024-04-22T07:06:06.958Z,1002.19
2024-04-22T07:07:06.932Z,1002.20
2024-04-22T07:08:06.966Z,1002.21
2024-04-22T07:09:06.902Z,1002.22
2024-04-22T07:10:06.921Z,1002.22
2024-04-22T07:11:06.948Z,1002.22
2024-04-22T07:12:07.722Z,1002.23
2024-04-22T07:13:07.374Z,1002.24
2024-04-22T07:14:06.903Z,1002.24
2024-04-22T07:15:06.889Z,1002.25
2024-04-22T07:16:06.831Z,1002.26
2024-04-22T07:17:06.928Z,1002.26
2024-04-22T07:18:06.870Z,1002.25
2024-04-22T07:19:06.805Z,1002.25
2024-04-22T07:20:06.789Z,1002.24
2024-04-22T07:21:06.776Z,1002.23
2024-04-22T07:22:06.805Z,1002.23
2024-04-22T07:23:06.763Z,1002.22
2024-04-22T07:24:06.765Z,1002.22
2024-04-22T07:25:06.740Z,1002.22
2024-04-22T07:26:06.745Z,1002.20
2024-04-22T07:27:10.942Z,1002.19
2024-04-22T07:28:06.704Z,1002.19
2024-04-22T07:29:06.731Z,1002.17
2024-04-22T07:30:06.685Z,1002.16
2024-04-22T07:31:06.694Z,1002.16
2024-04-22T07:32:06.662Z,1002.14
2024-04-22T07:33:06.751Z,1002.15
2024-04-22T07:34:06.653Z,1002.14
2024-04-22T07:35:06.652Z,1002.14
2024-04-22T07:36:06.633Z,1002.15
2024-04-22T07:37:06.630Z,1002.15
2024-04-22T07:38:06.653Z,1002.14
2024-04-22T07:39:06.592Z,1002.13
2024-04-22T07:40:06.727Z,1002.13
2024-04-22T07:41:06.598Z,1002.12
2024-04-22T07:42:06.566Z,1002.10
2024-04-22T07:43:06.550Z,1002.11
2024-04-22T07:44:06.556Z,1002.09
2024-04-22T07:45:06.566Z,1002.10
2024-04-22T07:46:06.512Z,1002.09
2024-04-22T07:47:06.547Z,1002.11
2024-04-22T07:48:06.517Z,1002.11
2024-04-22T07:49:06.536Z,1002.10
2024-04-22T07:50:06.480Z,1002.11
2024-04-22T07:51:06.481Z,1002.13
2024-04-22T07:52:06.517Z,1002.15
2024-04-22T07:53:06.444Z,1002.15
2024-04-22T07:54:06.471Z,1002.17
2024-04-22T07:55:06.432Z,1002.15
2024-04-22T07:56:06.480Z,1002.15
2024-04-22T07:57:06.419Z,1002.15
2024-04-22T07:58:06.383Z,1002.16
2024-04-22T07:59:06.621Z,1002.15
2024-04-22T08:00:06.373Z,1002.14
2024-04-22T08:01:06.459Z,1002.14
2024-04-22T08:02:06.417Z,1002.17
2024-04-22T08:03:07.083Z,1002.18
2024-04-22T08:04:06.512Z,1002.19
2024-04-22T08:05:06.348Z,1002.18
2024-04-22T08:06:06.316Z,1002.18
2024-04-22T08:07:06.491Z,1002.19
2024-04-22T08:08:06.385Z,1002.19
2024-04-22T08:09:06.399Z,1002.20
2024-04-22T08:10:06.337Z,1002.22
2024-04-22T08:11:07.005Z,1002.21
2024-04-22T08:12:06.247Z,1002.24
2024-04-22T08:13:06.322Z,1002.25
2024-04-22T08:14:06.312Z,1002.27
2024-04-22T08:15:06.216Z,1002.27
2024-04-22T08:16:06.214Z,1002.29
2024-04-22T08:17:06.645Z,1002.28
2024-04-22T08:18:06.266Z,1002.27
2024-04-22T08:19:06.196Z,1002.29
2024-04-22T08:20:06.177Z,1002.30
2024-04-22T08:21:06.182Z,1002.29
2024-04-22T08:22:06.168Z,1002.25
2024-04-22T08:23:06.176Z,1002.24
2024-04-22T08:24:06.114Z,1002.21
2024-04-22T08:25:06.111Z,1002.21
2024-04-22T08:26:06.112Z,1002.24
2024-04-22T08:27:06.118Z,1002.27
2024-04-22T08:28:06.091Z,1002.27
2024-04-22T08:29:06.071Z,1002.27
2024-04-22T08:30:06.042Z,1002.27
2024-04-22T08:31:06.069Z,1002.27
2024-04-22T08:32:06.064Z,1002.28
2024-04-22T08:33:06.092Z,1002.31
2024-04-22T08:34:06.028Z,1002.31
2024-04-22T08:35:06.001Z,1002.31
2024-04-22T08:36:06.056Z,1002.31
2024-04-22T08:37:05.986Z,1002.33
2024-04-22T08:38:05.971Z,1002.31
2024-04-22T08:39:06.062Z,1002.32
2024-04-22T08:40:05.947Z,1002.34
2024-04-22T08:41:06.061Z,1002.34
2024-04-22T08:42:05.924Z,1002.33
2024-04-22T08:43:05.996Z,1002.32
2024-04-22T08:44:05.937Z,1002.33
2024-04-22T08:45:05.932Z,1002.34
2024-04-22T08:46:05.907Z,1002.31
2024-04-22T08:47:05.987Z,1002.31
2024-04-22T08:48:05.944Z,1002.29
2024-04-22T08:49:05.855Z,1002.29
2024-04-22T08:50:05.861Z,1002.28
2024-04-22T08:51:05.848Z,1002.26
2024-04-22T08:52:05.826Z,1002.24
2024-04-22T08:53:05.889Z,1002.24
2024-04-22T08:54:05.802Z,1002.23
2024-04-22T08:55:05.884Z,1002.24
2024-04-22T08:56:05.778Z,1002.22
2024-04-22T08:57:05.800Z,1002.22
2024-04-22T08:58:05.814Z,1002.23
2024-04-22T08:59:05.756Z,1002.21
2024-04-22T09:00:05.761Z,1002.21
2024-04-22T09:01:05.843Z,1002.19
2024-04-22T09:02:05.755Z,1002.18
2024-04-22T09:03:05.753Z,1002.18
2024-04-22T09:04:05.772Z,1002.20
2024-04-22T09:05:08.554Z,1002.21
2024-04-22T09:06:05.889Z,1002.18
2024-04-22T09:07:05.689Z,1002.16
2024-04-22T09:08:05.964Z,1002.15
2024-04-22T09:09:05.698Z,1002.12
2024-04-22T09:10:33.985Z,1002.16
2024-04-22T09:11:35.791Z,1002.17
2024-04-22T09:12:09.978Z,1002.18
2024-04-22T09:13:05.701Z,1002.16
2024-04-22T09:14:05.762Z,1002.15
2024-04-22T09:15:06.003Z,1002.16
2024-04-22T09:16:05.572Z,1002.16
2024-04-22T09:17:05.665Z,1002.18
2024-04-22T09:18:05.704Z,1002.18
2024-04-22T09:19:05.778Z,1002.17
2024-04-22T09:20:05.537Z,1002.16
2024-04-22T09:21:07.240Z,1002.16
2024-04-22T09:22:05.575Z,1002.15
2024-04-22T09:23:05.599Z,1002.17
2024-04-22T09:24:05.522Z,1002.17
2024-04-22T09:25:05.659Z,1002.19
2024-04-22T09:26:05.596Z,1002.17
2024-04-22T09:27:05.512Z,1002.16
2024-04-22T09:28:05.497Z,1002.17
2024-04-22T09:29:05.826Z,1002.17
2024-04-22T09:30:05.877Z,1002.16
2024-04-22T09:31:05.562Z,1002.15
2024-04-22T09:32:05.991Z,1002.13
2024-04-22T09:33:05.563Z,1002.13
2024-04-22T09:34:05.469Z,1002.13
2024-04-22T09:35:08.230Z,1002.10
2024-04-22T09:36:05.507Z,1002.10
2024-04-22T09:37:05.374Z,1002.11
2024-04-22T09:38:05.554Z,1002.12
2024-04-22T09:39:05.537Z,1002.12
2024-04-22T09:40:05.315Z,1002.12
2024-04-22T09:41:05.553Z,1002.12
2024-04-22T09:42:05.312Z,1002.12
2024-04-22T09:43:05.375Z,1002.15
2024-04-22T09:44:10.355Z,1002.11
2024-04-22T09:45:05.274Z,1002.10
2024-04-22T09:46:05.328Z,1002.09
2024-04-22T09:47:06.051Z,1002.09
2024-04-22T09:48:05.329Z,1002.10
2024-04-22T09:49:05.428Z,1002.10
2024-04-22T09:50:05.321Z,1002.11
2024-04-22T09:51:05.333Z,1002.08
2024-04-22T09:52:05.484Z,1002.07
2024-04-22T09:53:05.512Z,1002.06
2024-04-22T09:54:05.249Z,1002.05
2024-04-22T09:55:05.317Z,1002.07
2024-04-22T09:56:05.884Z,1002.06
2024-04-22T09:57:05.205Z,1002.06
2024-04-22T09:58:05.235Z,1002.05
2024-04-22T09:59:05.247Z,1002.05
2024-04-22T10:00:05.226Z,1002.06
2024-04-22T10:01:05.247Z,1002.07
2024-04-22T10:02:05.214Z,1002.04
2024-04-22T10:03:05.198Z,1002.03
2024-04-22T10:04:05.160Z,1002.02
2024-04-22T10:05:05.178Z,1002.01
2024-04-22T10:06:05.579Z,1002.01
2024-04-22T10:07:05.203Z,1002.00
2024-04-22T10:08:05.220Z,1001.98
2024-04-22T10:09:05.068Z,1001.96
2024-04-22T10:10:05.183Z,1001.94
2024-04-22T10:11:05.059Z,1001.93
2024-04-22T10:12:05.399Z,1001.93
2024-04-22T10:13:05.026Z,1001.93
2024-04-22T10:14:05.124Z,1001.93
2024-04-22T10:15:06.133Z,1001.91
2024-04-22T10:16:05.134Z,1001.89
2024-04-22T10:17:05.124Z,1001.88
2024-04-22T10:18:07.417Z,1001.87
2024-04-22T10:19:05.269Z,1001.87
2024-04-22T10:20:05.108Z,1001.87
2024-04-22T10:21:04.921Z,1001.84
2024-04-22T10:22:04.891Z,1001.83
2024-04-22T10:23:04.880Z,1001.82
2024-04-22T10:24:04.878Z,1001.81
2024-04-22T10:25:04.870Z,1001.81
2024-04-22T10:26:04.840Z,1001.78
2024-04-22T10:27:10.016Z,1001.74
2024-04-22T10:28:04.829Z,1001.74
2024-04-22T10:29:04.937Z,1001.71
2024-04-22T10:30:08.285Z,1001.73
2024-04-22T10:31:04.792Z,1001.72
2024-04-22T10:32:05.206Z,1001.72
2024-04-22T10:33:04.860Z,1001.71
2024-04-22T10:34:04.870Z,1001.71
2024-04-22T10:35:04.760Z,1001.71
2024-04-22T10:36:04.742Z,1001.70
2024-04-22T10:37:04.782Z,1001.67
2024-04-22T10:38:04.741Z,1001.68
2024-04-22T10:39:04.756Z,1001.69
2024-04-22T10:40:04.757Z,1001.69
2024-04-22T10:41:04.697Z,1001.69
2024-04-22T10:42:04.714Z,1001.68
2024-04-22T10:43:04.671Z,1001.69
2024-04-22T10:44:04.662Z,1001.69
2024-04-22T10:45:04.639Z,1001.68
2024-04-22T10:46:04.626Z,1001.68
2024-04-22T10:47:04.630Z,1001.66
2024-04-22T10:48:12.116Z,1001.66
2024-04-22T10:49:04.660Z,1001.68
2024-04-22T10:50:04.722Z,1001.68
2024-04-22T10:51:04.580Z,1001.66
2024-04-22T10:52:05.219Z,1001.65
2024-04-22T10:53:05.025Z,1001.64
2024-04-22T10:54:04.583Z,1001.63
2024-04-22T10:55:04.550Z,1001.63
2024-04-22T10:56:04.619Z,1001.63
2024-04-22T10:57:04.561Z,1001.64
2024-04-22T10:58:04.557Z,1001.61
2024-04-22T10:59:04.496Z,1001.62
2024-04-22T11:00:04.505Z,1001.62
2024-04-22T11:01:04.690Z,1001.61
2024-04-22T11:02:04.778Z,1001.60
2024-04-22T11:03:04.574Z,1001.60
2024-04-22T11:04:04.504Z,1001.59
2024-04-22T11:05:04.609Z,1001.57
2024-04-22T11:06:04.471Z,1001.56
2024-04-22T11:07:04.430Z,1001.53
2024-04-22T11:08:04.399Z,1001.53
2024-04-22T11:09:04.718Z,1001.53
2024-04-22T11:10:04.405Z,1001.52
2024-04-22T11:11:04.759Z,1001.51
2024-04-22T11:12:04.461Z,1001.51
2024-04-22T11:13:04.339Z,1001.49
2024-04-22T11:14:04.330Z,1001.48
2024-04-22T11:15:04.368Z,1001.47
2024-04-22T11:16:04.379Z,1001.46
2024-04-22T11:17:04.400Z,1001.47
2024-04-22T11:18:04.315Z,1001.48
2024-04-22T11:19:06.915Z,1001.46
2024-04-22T11:20:04.420Z,1001.44
2024-04-22T11:21:04.300Z,1001.44
2024-04-22T11:22:04.254Z,1001.43
2024-04-22T11:23:04.244Z,1001.42
2024-04-22T11:24:04.262Z,1001.42
2024-04-22T11:25:06.343Z,1001.40
2024-04-22T11:26:04.224Z,1001.41
2024-04-22T11:27:04.192Z,1001.41
2024-04-22T11:28:04.215Z,1001.39
2024-04-22T11:29:04.212Z,1001.39
2024-04-22T11:30:04.200Z,1001.37
2024-04-22T11:31:04.169Z,1001.38
2024-04-22T11:32:04.168Z,1001.41
2024-04-22T11:33:04.423Z,1001.38
2024-04-22T11:34:04.269Z,1001.35
2024-04-22T11:35:04.185Z,1001.34
2024-04-22T11:36:04.107Z,1001.34
2024-04-22T11:37:04.107Z,1001.33
2024-04-22T11:38:04.117Z,1001.32
2024-04-22T11:39:04.589Z,1001.30
2024-04-22T11:40:04.063Z,1001.28
2024-04-22T11:41:04.063Z,1001.27
2024-04-22T11:42:04.052Z,1001.28
2024-04-22T11:43:04.032Z,1001.28
2024-04-22T11:44:04.059Z,1001.26
2024-04-22T11:45:06.695Z,1001.24
2024-04-22T11:46:04.012Z,1001.27
2024-04-22T11:47:04.194Z,1001.26
2024-04-22T11:48:04.170Z,1001.26
2024-04-22T11:49:04.051Z,1001.25
2024-04-22T11:50:03.965Z,1001.25
2024-04-22T11:51:03.954Z,1001.23
2024-04-22T11:52:03.935Z,1001.23
2024-04-22T11:53:12.017Z,1001.24
2024-04-22T11:54:03.962Z,1001.22
2024-04-22T11:55:03.911Z,1001.20
2024-04-22T11:56:07.187Z,1001.19
2024-04-22T11:57:03.989Z,1001.19
2024-04-22T11:58:03.890Z,1001.17
2024-04-22T11:59:03.904Z,1001.17
2024-04-22T12:00:03.973Z,1001.16
2024-04-22T12:01:03.915Z,1001.13
2024-04-22T12:02:03.829Z,1001.11
2024-04-22T12:03:05.704Z,1001.11
2024-04-22T12:04:03.910Z,1001.10
2024-04-22T12:05:03.952Z,1001.09